sensor_id;sensor_type;location;lat;lon;timestamp;P1;durP1;ratioP1;P2;durP2;ratioP2
32748;SDS011;19119;52.474;13.710;2023-08-07T00:08:46;6.78;;;2.33;;
32748;SDS011;19119;52.474;13.710;2023-08-07T00:11:12;5.53;;;2.10;;
32748;SDS011;19119;52.474;13.710;2023-08-07T00:13:37;3.85;;;2.20;;
32748;SDS011;19119;52.474;13.710;2023-08-07T00:16:04;4.70;;;2.60;;
32748;SDS011;19119;52.474;13.710;2023-08-07T00:18:29;5.45;;;2.35;;
32748;SDS011;19119;52.474;13.710;2023-08-07T00:20:55;5.20;;;2.25;;
32748;SDS011;19119;52.474;13.710;2023-08-07T00:23:21;6.38;;;2.95;;
32748;SDS011;19119;52.474;13.710;2023-08-07T00:25:46;3.72;;;2.42;;
32748;SDS011;19119;52.474;13.710;2023-08-07T00:28:12;3.90;;;2.20;;
32748;SDS011;19119;52.474;13.710;2023-08-07T00:30:37;4.65;;;2.13;;
32748;SDS011;19119;52.474;13.710;2023-08-07T00:33:03;3.08;;;2.13;;
32748;SDS011;19119;52.474;13.710;2023-08-07T00:35:28;4.68;;;2.20;;
32748;SDS011;19119;52.474;13.710;2023-08-07T00:37:54;6.88;;;2.70;;
32748;SDS011;19119;52.474;13.710;2023-08-07T00:40:19;7.90;;;2.40;;
32748;SDS011;19119;52.474;13.710;2023-08-07T00:42:45;7.13;;;2.60;;
32748;SDS011;19119;52.474;13.710;2023-08-07T00:45:10;6.00;;;2.45;;
32748;SDS011;19119;52.474;13.710;2023-08-07T00:47:36;7.68;;;2.50;;
32748;SDS011;19119;52.474;13.710;2023-08-07T00:50:03;4.05;;;2.15;;
32748;SDS011;19119;52.474;13.710;2023-08-07T00:52:29;3.53;;;2.47;;
32748;SDS011;19119;52.474;13.710;2023-08-07T00:54:55;5.30;;;2.53;;
32748;SDS011;19119;52.474;13.710;2023-08-07T00:57:20;4.50;;;2.20;;
32748;SDS011;19119;52.474;13.710;2023-08-07T00:59:47;3.95;;;2.42;;
32748;SDS011;19119;52.474;13.710;2023-08-07T01:02:13;4.00;;;2.30;;
32748;SDS011;19119;52.474;13.710;2023-08-07T01:04:40;5.10;;;2.22;;
32748;SDS011;19119;52.474;13.710;2023-08-07T01:07:05;3.63;;;2.33;;
32748;SDS011;19119;52.474;13.710;2023-08-07T01:09:31;4.75;;;2.15;;
32748;SDS011;19119;52.474;13.710;2023-08-07T01:12:09;4.60;;;2.28;;
32748;SDS011;19119;52.474;13.710;2023-08-07T01:14:46;5.50;;;3.10;;
32748;SDS011;19119;52.474;13.710;2023-08-07T01:17:16;4.57;;;2.47;;
32748;SDS011;19119;52.474;13.710;2023-08-07T01:19:44;4.88;;;2.33;;
32748;SDS011;19119;52.474;13.710;2023-08-07T01:22:11;3.88;;;2.10;;
32748;SDS011;19119;52.474;13.710;2023-08-07T01:24:39;4.07;;;2.45;;
32748;SDS011;19119;52.474;13.710;2023-08-07T01:27:09;11.45;;;2.85;;
32748;SDS011;19119;52.474;13.710;2023-08-07T01:32:34;5.85;;;2.50;;
32748;SDS011;19119;52.474;13.710;2023-08-07T01:35:18;9.38;;;3.42;;
32748;SDS011;19119;52.474;13.710;2023-08-07T01:37:47;3.85;;;2.83;;
32748;SDS011;19119;52.474;13.710;2023-08-07T01:40:13;6.72;;;2.88;;
32748;SDS011;19119;52.474;13.710;2023-08-07T01:42:40;8.40;;;3.30;;
32748;SDS011;19119;52.474;13.710;2023-08-07T01:45:06;6.55;;;2.75;;
32748;SDS011;19119;52.474;13.710;2023-08-07T01:47:32;10.63;;;3.17;;
32748;SDS011;19119;52.474;13.710;2023-08-07T01:49:57;4.25;;;2.80;;
32748;SDS011;19119;52.474;13.710;2023-08-07T01:52:23;7.50;;;3.22;;
32748;SDS011;19119;52.474;13.710;2023-08-07T01:54:48;8.38;;;2.85;;
32748;SDS011;19119;52.474;13.710;2023-08-07T01:57:13;9.15;;;2.88;;
32748;SDS011;19119;52.474;13.710;2023-08-07T01:59:39;5.75;;;2.85;;
32748;SDS011;19119;52.474;13.710;2023-08-07T02:02:04;4.73;;;2.67;;
32748;SDS011;19119;52.474;13.710;2023-08-07T02:04:30;3.90;;;2.55;;
32748;SDS011;19119;52.474;13.710;2023-08-07T02:06:56;7.65;;;2.63;;
32748;SDS011;19119;52.474;13.710;2023-08-07T02:09:22;6.82;;;3.92;;
32748;SDS011;19119;52.474;13.710;2023-08-07T02:11:47;6.75;;;3.15;;
32748;SDS011;19119;52.474;13.710;2023-08-07T02:14:13;8.85;;;2.95;;
32748;SDS011;19119;52.474;13.710;2023-08-07T02:16:38;7.68;;;2.78;;
32748;SDS011;19119;52.474;13.710;2023-08-07T02:19:04;4.13;;;2.65;;
32748;SDS011;19119;52.474;13.710;2023-08-07T02:21:29;4.13;;;2.63;;
32748;SDS011;19119;52.474;13.710;2023-08-07T02:23:54;8.63;;;2.80;;
32748;SDS011;19119;52.474;13.710;2023-08-07T02:26:20;6.97;;;3.10;;
32748;SDS011;19119;52.474;13.710;2023-08-07T02:28:45;6.03;;;2.97;;
32748;SDS011;19119;52.474;13.710;2023-08-07T02:31:11;5.38;;;2.83;;
32748;SDS011;19119;52.474;13.710;2023-08-07T02:33:36;5.00;;;3.20;;
32748;SDS011;19119;52.474;13.710;2023-08-07T02:36:02;9.43;;;3.50;;
32748;SDS011;19119;52.474;13.710;2023-08-07T02:38:28;10.38;;;3.03;;
32748;SDS011;19119;52.474;13.710;2023-08-07T02:40:53;4.68;;;2.88;;
32748;SDS011;19119;52.474;13.710;2023-08-07T02:43:19;6.95;;;3.28;;
32748;SDS011;19119;52.474;13.710;2023-08-07T02:45:44;13.23;;;3.63;;
32748;SDS011;19119;52.474;13.710;2023-08-07T02:48:10;5.85;;;3.45;;
32748;SDS011;19119;52.474;13.710;2023-08-07T02:50:35;7.78;;;3.75;;
32748;SDS011;19119;52.474;13.710;2023-08-07T02:53:01;4.00;;;3.13;;
32748;SDS011;19119;52.474;13.710;2023-08-07T02:55:27;11.23;;;3.38;;
32748;SDS011;19119;52.474;13.710;2023-08-07T02:57:52;9.53;;;3.10;;
32748;SDS011;19119;52.474;13.710;2023-08-07T03:00:18;4.20;;;2.90;;
32748;SDS011;19119;52.474;13.710;2023-08-07T03:02:44;7.27;;;3.43;;
32748;SDS011;19119;52.474;13.710;2023-08-07T03:05:09;5.35;;;3.55;;
32748;SDS011;19119;52.474;13.710;2023-08-07T03:07:35;8.90;;;3.95;;
32748;SDS011;19119;52.474;13.710;2023-08-07T03:10:01;7.10;;;3.50;;
32748;SDS011;19119;52.474;13.710;2023-08-07T03:12:26;9.07;;;3.95;;
32748;SDS011;19119;52.474;13.710;2023-08-07T03:14:52;6.80;;;3.53;;
32748;SDS011;19119;52.474;13.710;2023-08-07T03:17:17;7.63;;;3.85;;
32748;SDS011;19119;52.474;13.710;2023-08-07T03:19:43;7.63;;;4.32;;
32748;SDS011;19119;52.474;13.710;2023-08-07T03:22:08;7.60;;;4.13;;
32748;SDS011;19119;52.474;13.710;2023-08-07T03:24:34;10.60;;;5.10;;
32748;SDS011;19119;52.474;13.710;2023-08-07T03:27:00;8.73;;;4.55;;
32748;SDS011;19119;52.474;13.710;2023-08-07T03:29:25;6.57;;;3.85;;
32748;SDS011;19119;52.474;13.710;2023-08-07T03:31:51;10.07;;;4.83;;
32748;SDS011;19119;52.474;13.710;2023-08-07T03:34:17;5.93;;;4.50;;
32748;SDS011;19119;52.474;13.710;2023-08-07T03:36:42;10.80;;;5.05;;
32748;SDS011;19119;52.474;13.710;2023-08-07T03:39:08;8.13;;;4.70;;
32748;SDS011;19119;52.474;13.710;2023-08-07T03:41:35;8.13;;;4.78;;
32748;SDS011;19119;52.474;13.710;2023-08-07T03:44:00;13.88;;;5.78;;
32748;SDS011;19119;52.474;13.710;2023-08-07T03:46:26;10.63;;;5.65;;
32748;SDS011;19119;52.474;13.710;2023-08-07T03:48:51;8.43;;;5.07;;
32748;SDS011;19119;52.474;13.710;2023-08-07T03:51:17;10.35;;;4.88;;
32748;SDS011;19119;52.474;13.710;2023-08-07T03:53:43;14.55;;;5.80;;
32748;SDS011;19119;52.474;13.710;2023-08-07T03:56:08;14.50;;;5.00;;
32748;SDS011;19119;52.474;13.710;2023-08-07T03:58:34;11.07;;;4.63;;
32748;SDS011;19119;52.474;13.710;2023-08-07T04:00:59;11.98;;;4.80;;
32748;SDS011;19119;52.474;13.710;2023-08-07T04:03:25;10.00;;;5.38;;
32748;SDS011;19119;52.474;13.710;2023-08-07T04:05:54;9.82;;;4.75;;
32748;SDS011;19119;52.474;13.710;2023-08-07T04:08:20;9.57;;;5.03;;
32748;SDS011;19119;52.474;13.710;2023-08-07T04:10:57;10.85;;;4.97;;
32748;SDS011;19119;52.474;13.710;2023-08-07T04:13:24;8.85;;;4.72;;
32748;SDS011;19119;52.474;13.710;2023-08-07T04:15:49;7.65;;;5.05;;
32748;SDS011;19119;52.474;13.710;2023-08-07T04:18:14;10.32;;;5.10;;
32748;SDS011;19119;52.474;13.710;2023-08-07T04:20:40;8.15;;;4.65;;
32748;SDS011;19119;52.474;13.710;2023-08-07T04:23:06;8.95;;;5.22;;
32748;SDS011;19119;52.474;13.710;2023-08-07T04:25:31;10.65;;;4.55;;
32748;SDS011;19119;52.474;13.710;2023-08-07T04:27:56;11.05;;;5.03;;
32748;SDS011;19119;52.474;13.710;2023-08-07T04:30:22;6.28;;;4.20;;
32748;SDS011;19119;52.474;13.710;2023-08-07T04:32:47;8.82;;;4.28;;
32748;SDS011;19119;52.474;13.710;2023-08-07T04:35:14;6.80;;;4.28;;
32748;SDS011;19119;52.474;13.710;2023-08-07T04:37:39;13.30;;;5.07;;
32748;SDS011;19119;52.474;13.710;2023-08-07T04:40:05;10.32;;;4.85;;
32748;SDS011;19119;52.474;13.710;2023-08-07T04:42:31;16.48;;;5.07;;
32748;SDS011;19119;52.474;13.710;2023-08-07T05:14:04;5.47;;;3.05;;
32748;SDS011;19119;52.474;13.710;2023-08-07T05:16:30;6.55;;;3.45;;
32748;SDS011;19119;52.474;13.710;2023-08-07T05:18:55;7.95;;;3.10;;
32748;SDS011;19119;52.474;13.710;2023-08-07T05:26:12;6.28;;;3.33;;
32748;SDS011;19119;52.474;13.710;2023-08-07T05:28:38;7.57;;;3.13;;
32748;SDS011;19119;52.474;13.710;2023-08-07T05:31:03;5.32;;;3.58;;
32748;SDS011;19119;52.474;13.710;2023-08-07T05:33:29;6.63;;;3.50;;
32748;SDS011;19119;52.474;13.710;2023-08-07T05:35:54;5.97;;;2.60;;
32748;SDS011;19119;52.474;13.710;2023-08-07T05:38:20;5.80;;;3.13;;
32748;SDS011;19119;52.474;13.710;2023-08-07T05:40:46;6.93;;;2.40;;
32748;SDS011;19119;52.474;13.710;2023-08-07T05:43:11;4.85;;;2.45;;
32748;SDS011;19119;52.474;13.710;2023-08-07T05:45:37;4.72;;;2.60;;
32748;SDS011;19119;52.474;13.710;2023-08-07T05:48:03;7.68;;;2.78;;
32748;SDS011;19119;52.474;13.710;2023-08-07T05:50:29;4.78;;;2.28;;
32748;SDS011;19119;52.474;13.710;2023-08-07T05:52:54;6.05;;;2.80;;
32748;SDS011;19119;52.474;13.710;2023-08-07T05:55:20;6.07;;;2.85;;
32748;SDS011;19119;52.474;13.710;2023-08-07T05:57:45;5.63;;;2.97;;
32748;SDS011;19119;52.474;13.710;2023-08-07T06:00:11;6.07;;;2.80;;
32748;SDS011;19119;52.474;13.710;2023-08-07T06:02:42;4.65;;;2.83;;
32748;SDS011;19119;52.474;13.710;2023-08-07T06:05:07;5.30;;;2.90;;
32748;SDS011;19119;52.474;13.710;2023-08-07T06:07:34;4.47;;;2.50;;
32748;SDS011;19119;52.474;13.710;2023-08-07T06:10:00;4.13;;;2.22;;
32748;SDS011;19119;52.474;13.710;2023-08-07T06:12:25;3.75;;;2.65;;
32748;SDS011;19119;52.474;13.710;2023-08-07T06:14:51;4.70;;;2.35;;
32748;SDS011;19119;52.474;13.710;2023-08-07T06:26:58;4.65;;;2.60;;
32748;SDS011;19119;52.474;13.710;2023-08-07T06:29:23;5.70;;;2.42;;
32748;SDS011;19119;52.474;13.710;2023-08-07T06:31:49;4.28;;;2.72;;
32748;SDS011;19119;52.474;13.710;2023-08-07T06:34:14;7.15;;;2.20;;
32748;SDS011;19119;52.474;13.710;2023-08-07T06:36:40;6.68;;;2.40;;
32748;SDS011;19119;52.474;13.710;2023-08-07T06:39:05;3.75;;;2.40;;
32748;SDS011;19119;52.474;13.710;2023-08-07T06:41:31;3.97;;;2.17;;
32748;SDS011;19119;52.474;13.710;2023-08-07T06:43:56;7.20;;;2.55;;
32748;SDS011;19119;52.474;13.710;2023-08-07T06:46:22;3.85;;;1.88;;
32748;SDS011;19119;52.474;13.710;2023-08-07T06:48:51;7.65;;;2.78;;
32748;SDS011;19119;52.474;13.710;2023-08-07T06:51:17;5.43;;;2.65;;
32748;SDS011;19119;52.474;13.710;2023-08-07T06:53:42;8.70;;;2.67;;
32748;SDS011;19119;52.474;13.710;2023-08-07T06:56:08;5.60;;;2.38;;
32748;SDS011;19119;52.474;13.710;2023-08-07T06:58:33;2.90;;;2.10;;
32748;SDS011;19119;52.474;13.710;2023-08-07T07:00:59;12.40;;;2.30;;
32748;SDS011;19119;52.474;13.710;2023-08-07T07:03:24;5.97;;;1.95;;
32748;SDS011;19119;52.474;13.710;2023-08-07T07:05:49;3.67;;;1.40;;
32748;SDS011;19119;52.474;13.710;2023-08-07T07:08:15;3.15;;;1.90;;
32748;SDS011;19119;52.474;13.710;2023-08-07T07:10:41;3.75;;;2.00;;
32748;SDS011;19119;52.474;13.710;2023-08-07T07:13:06;4.20;;;1.85;;
32748;SDS011;19119;52.474;13.710;2023-08-07T07:15:34;5.32;;;1.85;;
32748;SDS011;19119;52.474;13.710;2023-08-07T07:18:00;3.97;;;1.55;;
32748;SDS011;19119;52.474;13.710;2023-08-07T07:20:26;6.60;;;2.30;;
32748;SDS011;19119;52.474;13.710;2023-08-07T07:22:52;4.60;;;1.80;;
32748;SDS011;19119;52.474;13.710;2023-08-07T07:25:17;3.38;;;1.85;;
32748;SDS011;19119;52.474;13.710;2023-08-07T07:27:43;4.25;;;1.60;;
32748;SDS011;19119;52.474;13.710;2023-08-07T07:30:08;5.35;;;1.63;;
32748;SDS011;19119;52.474;13.710;2023-08-07T07:32:34;4.22;;;1.52;;
32748;SDS011;19119;52.474;13.710;2023-08-07T07:35:00;3.42;;;2.00;;
32748;SDS011;19119;52.474;13.710;2023-08-07T07:37:26;6.25;;;1.92;;
32748;SDS011;19119;52.474;13.710;2023-08-07T07:39:51;3.35;;;1.45;;
32748;SDS011;19119;52.474;13.710;2023-08-07T07:42:17;2.55;;;1.25;;
32748;SDS011;19119;52.474;13.710;2023-08-07T07:44:42;2.75;;;1.50;;
32748;SDS011;19119;52.474;13.710;2023-08-07T07:47:08;3.38;;;1.65;;
32748;SDS011;19119;52.474;13.710;2023-08-07T07:49:33;4.35;;;1.50;;
32748;SDS011;19119;52.474;13.710;2023-08-07T07:51:59;3.00;;;1.58;;
32748;SDS011;19119;52.474;13.710;2023-08-07T07:54:25;3.08;;;1.55;;
32748;SDS011;19119;52.474;13.710;2023-08-07T07:56:50;2.45;;;1.63;;
32748;SDS011;19119;52.474;13.710;2023-08-07T07:59:16;2.10;;;1.20;;
32748;SDS011;19119;52.474;13.710;2023-08-07T08:01:41;3.63;;;1.40;;
32748;SDS011;19119;52.474;13.710;2023-08-07T08:04:07;4.00;;;1.23;;
32748;SDS011;19119;52.474;13.710;2023-08-07T08:06:32;4.70;;;2.10;;
32748;SDS011;19119;52.474;13.710;2023-08-07T08:08:58;2.92;;;1.50;;
32748;SDS011;19119;52.474;13.710;2023-08-07T08:11:24;6.10;;;1.45;;
32748;SDS011;19119;52.474;13.710;2023-08-07T08:13:50;7.90;;;1.65;;
32748;SDS011;19119;52.474;13.710;2023-08-07T08:16:15;5.18;;;1.58;;
32748;SDS011;19119;52.474;13.710;2023-08-07T08:18:41;3.58;;;1.58;;
32748;SDS011;19119;52.474;13.710;2023-08-07T08:21:06;3.72;;;1.45;;
32748;SDS011;19119;52.474;13.710;2023-08-07T08:23:32;6.13;;;1.67;;
32748;SDS011;19119;52.474;13.710;2023-08-07T08:25:57;2.83;;;1.42;;
32748;SDS011;19119;52.474;13.710;2023-08-07T08:28:23;2.33;;;1.23;;
32748;SDS011;19119;52.474;13.710;2023-08-07T08:30:48;4.43;;;1.60;;
32748;SDS011;19119;52.474;13.710;2023-08-07T08:33:14;3.15;;;1.90;;
32748;SDS011;19119;52.474;13.710;2023-08-07T08:35:39;4.32;;;1.92;;
32748;SDS011;19119;52.474;13.710;2023-08-07T08:38:05;5.72;;;1.60;;
32748;SDS011;19119;52.474;13.710;2023-08-07T08:40:31;6.55;;;1.70;;
32748;SDS011;19119;52.474;13.710;2023-08-07T08:42:57;5.00;;;1.48;;
32748;SDS011;19119;52.474;13.710;2023-08-07T08:45:26;4.32;;;1.85;;
32748;SDS011;19119;52.474;13.710;2023-08-07T08:47:52;4.93;;;1.55;;
32748;SDS011;19119;52.474;13.710;2023-08-07T08:50:20;5.13;;;1.63;;
32748;SDS011;19119;52.474;13.710;2023-08-07T08:52:46;3.20;;;1.88;;
32748;SDS011;19119;52.474;13.710;2023-08-07T08:55:12;7.13;;;2.03;;
32748;SDS011;19119;52.474;13.710;2023-08-07T08:57:38;5.60;;;2.30;;
32748;SDS011;19119;52.474;13.710;2023-08-07T09:00:08;11.52;;;1.98;;
32748;SDS011;19119;52.474;13.710;2023-08-07T09:02:45;3.33;;;2.00;;
32748;SDS011;19119;52.474;13.710;2023-08-07T09:05:13;3.95;;;2.10;;
32748;SDS011;19119;52.474;13.710;2023-08-07T09:07:40;4.53;;;2.00;;
32748;SDS011;19119;52.474;13.710;2023-08-07T09:10:05;2.40;;;1.50;;
32748;SDS011;19119;52.474;13.710;2023-08-07T09:12:33;5.40;;;1.60;;
32748;SDS011;19119;52.474;13.710;2023-08-07T09:15:01;4.97;;;2.15;;
32748;SDS011;19119;52.474;13.710;2023-08-07T09:17:29;5.57;;;1.60;;
32748;SDS011;19119;52.474;13.710;2023-08-07T09:19:58;3.47;;;1.65;;
32748;SDS011;19119;52.474;13.710;2023-08-07T09:22:24;4.07;;;1.50;;
32748;SDS011;19119;52.474;13.710;2023-08-07T09:24:49;3.00;;;1.60;;
32748;SDS011;19119;52.474;13.710;2023-08-07T09:27:15;1.98;;;1.10;;
32748;SDS011;19119;52.474;13.710;2023-08-07T09:29:40;6.10;;;2.08;;
32748;SDS011;19119;52.474;13.710;2023-08-07T09:32:07;9.30;;;1.88;;
32748;SDS011;19119;52.474;13.710;2023-08-07T09:34:33;4.28;;;2.08;;
32748;SDS011;19119;52.474;13.710;2023-08-07T09:36:59;3.80;;;1.40;;
32748;SDS011;19119;52.474;13.710;2023-08-07T09:39:24;4.78;;;1.65;;
32748;SDS011;19119;52.474;13.710;2023-08-07T09:41:53;5.82;;;1.77;;
32748;SDS011;19119;52.474;13.710;2023-08-07T09:44:18;5.75;;;1.98;;
32748;SDS011;19119;52.474;13.710;2023-08-07T09:46:44;2.35;;;1.50;;
32748;SDS011;19119;52.474;13.710;2023-08-07T09:49:10;3.33;;;1.80;;
32748;SDS011;19119;52.474;13.710;2023-08-07T09:51:45;3.38;;;1.70;;
32748;SDS011;19119;52.474;13.710;2023-08-07T09:54:12;7.00;;;1.65;;
32748;SDS011;19119;52.474;13.710;2023-08-07T09:56:38;2.67;;;1.60;;
32748;SDS011;19119;52.474;13.710;2023-08-07T09:59:06;4.20;;;1.70;;
32748;SDS011;19119;52.474;13.710;2023-08-07T10:01:33;6.10;;;1.92;;
32748;SDS011;19119;52.474;13.710;2023-08-07T10:04:01;3.58;;;1.60;;
32748;SDS011;19119;52.474;13.710;2023-08-07T10:06:27;3.58;;;1.58;;
32748;SDS011;19119;52.474;13.710;2023-08-07T10:08:53;3.90;;;1.63;;
32748;SDS011;19119;52.474;13.710;2023-08-07T10:11:19;4.15;;;1.73;;
32748;SDS011;19119;52.474;13.710;2023-08-07T10:13:46;3.28;;;1.70;;
32748;SDS011;19119;52.474;13.710;2023-08-07T10:16:12;2.70;;;1.77;;
32748;SDS011;19119;52.474;13.710;2023-08-07T10:18:38;3.70;;;1.50;;
32748;SDS011;19119;52.474;13.710;2023-08-07T10:21:05;3.47;;;1.88;;
32748;SDS011;19119;52.474;13.710;2023-08-07T10:23:33;3.58;;;1.60;;
32748;SDS011;19119;52.474;13.710;2023-08-07T10:26:00;4.85;;;1.42;;
32748;SDS011;19119;52.474;13.710;2023-08-07T10:28:29;4.53;;;1.70;;
32748;SDS011;19119;52.474;13.710;2023-08-07T10:30:56;11.52;;;2.40;;
32748;SDS011;19119;52.474;13.710;2023-08-07T10:33:22;5.20;;;1.80;;
32748;SDS011;19119;52.474;13.710;2023-08-07T10:35:49;3.45;;;1.67;;
32748;SDS011;19119;52.474;13.710;2023-08-07T10:38:18;2.60;;;1.35;;
32748;SDS011;19119;52.474;13.710;2023-08-07T10:41:01;3.38;;;1.63;;
32748;SDS011;19119;52.474;13.710;2023-08-07T10:43:30;3.70;;;1.08;;
32748;SDS011;19119;52.474;13.710;2023-08-07T10:46:11;2.92;;;1.63;;
32748;SDS011;19119;52.474;13.710;2023-08-07T10:48:44;12.63;;;2.55;;
32748;SDS011;19119;52.474;13.710;2023-08-07T10:51:14;5.68;;;1.83;;
32748;SDS011;19119;52.474;13.710;2023-08-07T10:53:42;4.05;;;1.42;;
32748;SDS011;19119;52.474;13.710;2023-08-07T10:56:32;7.65;;;1.73;;
32748;SDS011;19119;52.474;13.710;2023-08-07T10:58:56;8.40;;;1.77;;
32748;SDS011;19119;52.474;13.710;2023-08-07T11:03:59;2.45;;;1.25;;
32748;SDS011;19119;52.474;13.710;2023-08-07T11:06:30;9.57;;;2.08;;
32748;SDS011;19119;52.474;13.710;2023-08-07T11:09:00;5.65;;;1.25;;
32748;SDS011;19119;52.474;13.710;2023-08-07T11:11:34;2.28;;;1.33;;
32748;SDS011;19119;52.474;13.710;2023-08-07T11:14:08;2.80;;;1.52;;
32748;SDS011;19119;52.474;13.710;2023-08-07T11:16:35;4.03;;;1.37;;
32748;SDS011;19119;52.474;13.710;2023-08-07T11:19:01;1.80;;;1.27;;
32748;SDS011;19119;52.474;13.710;2023-08-07T11:21:27;2.47;;;1.20;;
32748;SDS011;19119;52.474;13.710;2023-08-07T11:28:46;4.68;;;1.60;;
32748;SDS011;19119;52.474;13.710;2023-08-07T11:31:12;5.93;;;1.73;;
32748;SDS011;19119;52.474;13.710;2023-08-07T11:33:38;5.22;;;2.15;;
32748;SDS011;19119;52.474;13.710;2023-08-07T11:36:05;7.15;;;3.05;;
32748;SDS011;19119;52.474;13.710;2023-08-07T11:38:42;6.85;;;2.60;;
32748;SDS011;19119;52.474;13.710;2023-08-07T11:41:08;7.93;;;4.57;;
32748;SDS011;19119;52.474;13.710;2023-08-07T11:43:38;2.95;;;1.98;;
32748;SDS011;19119;52.474;13.710;2023-08-07T11:46:05;7.65;;;2.80;;
32748;SDS011;19119;52.474;13.710;2023-08-07T11:48:33;8.93;;;3.30;;
32748;SDS011;19119;52.474;13.710;2023-08-07T11:51:00;5.82;;;2.75;;
32748;SDS011;19119;52.474;13.710;2023-08-07T11:53:28;5.57;;;2.63;;
32748;SDS011;19119;52.474;13.710;2023-08-07T11:55:55;5.13;;;1.90;;
32748;SDS011;19119;52.474;13.710;2023-08-07T11:58:23;8.75;;;2.50;;
32748;SDS011;19119;52.474;13.710;2023-08-07T12:00:50;4.28;;;1.83;;
32748;SDS011;19119;52.474;13.710;2023-08-07T12:03:25;8.43;;;2.42;;
32748;SDS011;19119;52.474;13.710;2023-08-07T12:05:58;39.10;;;7.57;;
32748;SDS011;19119;52.474;13.710;2023-08-07T12:08:45;6.13;;;2.63;;
32748;SDS011;19119;52.474;13.710;2023-08-07T12:11:13;3.63;;;1.65;;
32748;SDS011;19119;52.474;13.710;2023-08-07T12:13:40;6.47;;;1.88;;
32748;SDS011;19119;52.474;13.710;2023-08-07T12:16:07;3.58;;;1.75;;
32748;SDS011;19119;52.474;13.710;2023-08-07T12:18:34;2.97;;;1.60;;
32748;SDS011;19119;52.474;13.710;2023-08-07T12:21:03;5.13;;;2.22;;
32748;SDS011;19119;52.474;13.710;2023-08-07T12:23:32;3.33;;;1.45;;
32748;SDS011;19119;52.474;13.710;2023-08-07T12:25:58;5.18;;;1.55;;
32748;SDS011;19119;52.474;13.710;2023-08-07T12:28:24;4.78;;;2.13;;
32748;SDS011;19119;52.474;13.710;2023-08-07T12:30:50;3.55;;;1.75;;
32748;SDS011;19119;52.474;13.710;2023-08-07T12:33:16;6.00;;;1.45;;
32748;SDS011;19119;52.474;13.710;2023-08-07T12:35:42;3.78;;;2.10;;
32748;SDS011;19119;52.474;13.710;2023-08-07T12:38:08;3.70;;;1.88;;
32748;SDS011;19119;52.474;13.710;2023-08-07T12:40:34;3.95;;;1.90;;
32748;SDS011;19119;52.474;13.710;2023-08-07T12:43:01;2.85;;;1.60;;
32748;SDS011;19119;52.474;13.710;2023-08-07T12:45:30;5.07;;;1.42;;
32748;SDS011;19119;52.474;13.710;2023-08-07T12:47:56;5.80;;;1.58;;
32748;SDS011;19119;52.474;13.710;2023-08-07T12:50:21;3.83;;;1.83;;
32748;SDS011;19119;52.474;13.710;2023-08-07T12:52:47;5.50;;;1.20;;
32748;SDS011;19119;52.474;13.710;2023-08-07T12:55:13;4.82;;;1.50;;
32748;SDS011;19119;52.474;13.710;2023-08-07T12:57:41;3.72;;;1.52;;
32748;SDS011;19119;52.474;13.710;2023-08-07T13:00:08;3.63;;;1.50;;
32748;SDS011;19119;52.474;13.710;2023-08-07T13:02:41;4.05;;;1.40;;
32748;SDS011;19119;52.474;13.710;2023-08-07T13:05:07;4.22;;;1.30;;
32748;SDS011;19119;52.474;13.710;2023-08-07T13:07:34;7.53;;;2.00;;
32748;SDS011;19119;52.474;13.710;2023-08-07T13:09:59;6.70;;;1.90;;
32748;SDS011;19119;52.474;13.710;2023-08-07T13:12:25;6.43;;;2.00;;
32748;SDS011;19119;52.474;13.710;2023-08-07T13:14:50;4.38;;;1.80;;
32748;SDS011;19119;52.474;13.710;2023-08-07T13:17:16;7.53;;;1.88;;
32748;SDS011;19119;52.474;13.710;2023-08-07T13:19:41;7.55;;;2.17;;
32748;SDS011;19119;52.474;13.710;2023-08-07T13:22:07;5.28;;;2.03;;
32748;SDS011;19119;52.474;13.710;2023-08-07T13:24:32;5.45;;;1.38;;
32748;SDS011;19119;52.474;13.710;2023-08-07T13:26:58;6.90;;;1.60;;
32748;SDS011;19119;52.474;13.710;2023-08-07T13:29:23;7.75;;;2.30;;
32748;SDS011;19119;52.474;13.710;2023-08-07T13:31:51;9.77;;;2.28;;
32748;SDS011;19119;52.474;13.710;2023-08-07T13:34:16;4.60;;;2.15;;
32748;SDS011;19119;52.474;13.710;2023-08-07T13:36:42;6.95;;;2.00;;
32748;SDS011;19119;52.474;13.710;2023-08-07T13:39:07;5.10;;;2.08;;
32748;SDS011;19119;52.474;13.710;2023-08-07T13:41:34;5.13;;;1.50;;
32748;SDS011;19119;52.474;13.710;2023-08-07T13:44:02;6.78;;;1.73;;
32748;SDS011;19119;52.474;13.710;2023-08-07T13:46:27;7.15;;;1.52;;
32748;SDS011;19119;52.474;13.710;2023-08-07T13:48:53;5.75;;;1.98;;
32748;SDS011;19119;52.474;13.710;2023-08-07T13:51:19;5.97;;;2.05;;
32748;SDS011;19119;52.474;13.710;2023-08-07T13:53:44;14.10;;;2.25;;
32748;SDS011;19119;52.474;13.710;2023-08-07T13:56:10;3.75;;;1.60;;
32748;SDS011;19119;52.474;13.710;2023-08-07T13:58:37;5.30;;;1.80;;
32748;SDS011;19119;52.474;13.710;2023-08-07T14:01:03;8.60;;;2.25;;
32748;SDS011;19119;52.474;13.710;2023-08-07T14:03:30;6.20;;;1.65;;
32748;SDS011;19119;52.474;13.710;2023-08-07T14:05:55;6.22;;;2.28;;
32748;SDS011;19119;52.474;13.710;2023-08-07T14:08:21;6.10;;;2.28;;
32748;SDS011;19119;52.474;13.710;2023-08-07T14:10:47;6.65;;;1.52;;
32748;SDS011;19119;52.474;13.710;2023-08-07T14:13:12;6.15;;;1.83;;
32748;SDS011;19119;52.474;13.710;2023-08-07T14:15:38;4.75;;;1.63;;
32748;SDS011;19119;52.474;13.710;2023-08-07T14:18:03;8.70;;;1.42;;
32748;SDS011;19119;52.474;13.710;2023-08-07T14:20:29;5.82;;;1.75;;
32748;SDS011;19119;52.474;13.710;2023-08-07T14:22:54;7.20;;;1.98;;
32748;SDS011;19119;52.474;13.710;2023-08-07T14:25:20;5.03;;;1.50;;
32748;SDS011;19119;52.474;13.710;2023-08-07T14:27:47;6.78;;;1.83;;
32748;SDS011;19119;52.474;13.710;2023-08-07T14:30:13;6.55;;;1.73;;
32748;SDS011;19119;52.474;13.710;2023-08-07T14:32:38;4.43;;;1.77;;
32748;SDS011;19119;52.474;13.710;2023-08-07T14:35:04;8.95;;;1.88;;
32748;SDS011;19119;52.474;13.710;2023-08-07T14:37:30;3.90;;;1.70;;
32748;SDS011;19119;52.474;13.710;2023-08-07T14:39:55;10.38;;;1.92;;
32748;SDS011;19119;52.474;13.710;2023-08-07T14:42:21;8.73;;;2.22;;
32748;SDS011;19119;52.474;13.710;2023-08-07T14:44:47;5.13;;;1.80;;
32748;SDS011;19119;52.474;13.710;2023-08-07T14:47:12;5.65;;;1.92;;
32748;SDS011;19119;52.474;13.710;2023-08-07T14:49:38;5.15;;;2.00;;
32748;SDS011;19119;52.474;13.710;2023-08-07T14:52:04;5.53;;;1.65;;
32748;SDS011;19119;52.474;13.710;2023-08-07T14:54:30;4.93;;;1.48;;
32748;SDS011;19119;52.474;13.710;2023-08-07T14:56:56;6.88;;;2.30;;
32748;SDS011;19119;52.474;13.710;2023-08-07T14:59:23;8.13;;;1.90;;
32748;SDS011;19119;52.474;13.710;2023-08-07T15:01:52;6.30;;;2.47;;
32748;SDS011;19119;52.474;13.710;2023-08-07T15:04:17;5.75;;;2.05;;
32748;SDS011;19119;52.474;13.710;2023-08-07T15:06:43;6.32;;;1.63;;
32748;SDS011;19119;52.474;13.710;2023-08-07T15:09:11;6.65;;;2.42;;
32748;SDS011;19119;52.474;13.710;2023-08-07T15:11:37;6.15;;;2.53;;
32748;SDS011;19119;52.474;13.710;2023-08-07T15:14:02;5.15;;;1.75;;
32748;SDS011;19119;52.474;13.710;2023-08-07T15:16:29;7.40;;;2.00;;
32748;SDS011;19119;52.474;13.710;2023-08-07T15:18:55;8.25;;;2.55;;
32748;SDS011;19119;52.474;13.710;2023-08-07T15:21:21;4.50;;;1.67;;
32748;SDS011;19119;52.474;13.710;2023-08-07T15:23:46;4.90;;;1.63;;
32748;SDS011;19119;52.474;13.710;2023-08-07T15:26:12;6.60;;;2.17;;
32748;SDS011;19119;52.474;13.710;2023-08-07T15:28:37;5.88;;;1.92;;
32748;SDS011;19119;52.474;13.710;2023-08-07T15:31:03;9.70;;;2.33;;